createdAt,value
2023-03-01T00:01:22.299Z,3.60
2023-03-01T00:03:51.232Z,4.07
2023-03-01T00:06:19.955Z,3.63
2023-03-01T00:08:48.150Z,4.40
2023-03-01T00:11:20.031Z,3.97
2023-03-01T00:13:50.144Z,2.97
2023-03-01T00:16:23.637Z,4.03
2023-03-01T00:18:55.449Z,4.27
2023-03-01T00:21:23.966Z,4.20
2023-03-01T00:23:52.456Z,4.00
2023-03-01T00:26:24.127Z,4.17
2023-03-01T00:28:53.206Z,4.30
2023-03-01T00:31:23.577Z,3.23
2023-03-01T00:33:54.943Z,3.78
2023-03-01T00:36:23.187Z,4.37
2023-03-01T00:38:51.279Z,4.15
2023-03-01T00:41:23.545Z,4.28
2023-03-01T00:43:52.364Z,4.47
2023-03-01T00:46:22.614Z,3.25
2023-03-01T00:48:51.064Z,4.93
2023-03-01T00:51:21.778Z,3.73
2023-03-01T00:53:52.806Z,5.12
2023-03-01T00:56:23.039Z,4.07
2023-03-01T00:58:51.829Z,4.45
2023-03-01T01:01:23.043Z,4.87
2023-03-01T01:03:54.447Z,3.95
2023-03-01T01:06:24.158Z,4.50
2023-03-01T01:08:53.580Z,4.53
2023-03-01T01:11:23.516Z,4.60
2023-03-01T01:13:52.081Z,4.70
2023-03-01T01:16:21.679Z,4.00
2023-03-01T01:18:51.406Z,4.57
2023-03-01T01:21:22.334Z,4.87
2023-03-01T01:23:51.325Z,3.53
2023-03-01T01:26:21.489Z,3.73
2023-03-01T01:28:52.608Z,3.30
2023-03-01T01:31:24.632Z,5.27
2023-03-01T01:33:53.325Z,4.27
2023-03-01T01:36:22.353Z,4.20
2023-03-01T01:38:50.742Z,3.65
2023-03-01T01:41:19.028Z,3.80
2023-03-01T01:43:49.879Z,3.53
2023-03-01T01:46:26.163Z,4.00
2023-03-01T01:48:59.331Z,4.20
2023-03-01T01:51:39.083Z,4.37
2023-03-01T01:54:14.262Z,3.67
2023-03-01T01:56:46.412Z,4.80
2023-03-01T01:59:16.805Z,3.87
2023-03-01T02:01:46.394Z,3.43
2023-03-01T02:04:14.858Z,4.45
2023-03-01T02:06:51.374Z,4.67
2023-03-01T02:09:22.451Z,3.97
2023-03-01T02:11:52.545Z,3.33
2023-03-01T02:14:20.723Z,3.80
2023-03-01T02:16:50.681Z,3.22
2023-03-01T02:19:32.944Z,2.73
2023-03-01T02:22:08.948Z,3.87
2023-03-01T02:24:50.405Z,4.63
2023-03-01T02:27:25.734Z,3.97
2023-03-01T02:29:56.813Z,3.83
2023-03-01T02:32:26.263Z,4.17
2023-03-01T02:34:55.831Z,4.13
2023-03-01T02:37:26.658Z,4.17
2023-03-01T02:40:00.320Z,3.93
2023-03-01T02:42:32.811Z,3.87
2023-03-01T02:45:02.427Z,4.67
2023-03-01T02:47:30.798Z,3.90
2023-03-01T02:49:58.794Z,4.37
2023-03-01T02:52:47.318Z,3.43
2023-03-01T02:55:18.491Z,4.27
2023-03-01T02:57:51.599Z,4.00
2023-03-01T03:00:26.036Z,4.33
2023-03-01T03:02:57.888Z,3.93
2023-03-01T03:05:28.876Z,4.40
2023-03-01T03:07:59.376Z,4.60
2023-03-01T03:10:30.601Z,4.77
2023-03-01T03:13:00.681Z,3.80
2023-03-01T03:15:31.095Z,3.77
2023-03-01T03:18:00.714Z,3.27
2023-03-01T03:20:30.770Z,3.63
2023-03-01T03:23:00.243Z,3.43
2023-03-01T03:25:30.065Z,3.60
2023-03-01T03:27:59.241Z,4.73
2023-03-01T03:30:29.408Z,4.27
2023-03-01T03:33:00.467Z,4.00
2023-03-01T03:35:31.316Z,4.10
2023-03-01T03:38:03.982Z,3.37
2023-03-01T03:40:34.336Z,4.37
2023-03-01T03:43:03.148Z,4.07
2023-03-01T03:45:34.157Z,4.23
2023-03-01T03:48:05.866Z,3.83
2023-03-01T03:50:34.604Z,4.13
2023-03-01T03:53:05.282Z,4.10
2023-03-01T03:55:34.896Z,3.60
2023-03-01T03:58:08.657Z,3.33
2023-03-01T04:00:37.955Z,4.00
2023-03-01T04:03:09.211Z,4.03
2023-03-01T04:05:37.808Z,3.70
2023-03-01T04:08:08.847Z,4.70
2023-03-01T04:10:43.877Z,3.80
2023-03-01T04:13:14.216Z,5.03
2023-03-01T04:15:44.026Z,4.37
2023-03-01T04:18:15.623Z,4.47
2023-03-01T04:20:46.011Z,4.47
2023-03-01T04:23:16.944Z,5.00
2023-03-01T05:34:31.470Z,4.60
2023-03-01T05:37:00.187Z,3.57
2023-03-01T05:39:30.911Z,2.97
2023-03-01T05:42:01.796Z,4.73
2023-03-01T05:44:31.211Z,3.33
2023-03-01T05:46:59.502Z,4.20
2023-03-01T05:49:29.004Z,5.23
2023-03-01T05:51:57.106Z,3.53
2023-03-01T05:54:25.568Z,3.77
2023-03-01T05:56:53.656Z,3.83
2023-03-01T05:59:21.755Z,4.63
2023-03-01T06:01:51.062Z,4.03
2023-03-01T06:04:19.362Z,4.40
2023-03-01T06:06:48.746Z,3.30
2023-03-01T06:09:16.777Z,3.67
2023-03-01T06:11:45.086Z,3.77
2023-03-01T06:14:15.607Z,3.80
2023-03-01T06:16:43.745Z,3.33
2023-03-01T06:19:15.033Z,3.70
2023-03-01T06:21:43.102Z,4.00
2023-03-01T06:24:12.834Z,3.83
2023-03-01T06:26:40.920Z,4.53
2023-03-01T06:29:09.698Z,4.77
2023-03-01T06:31:38.124Z,2.00
2023-03-01T06:34:06.304Z,3.07
2023-03-01T06:36:34.351Z,4.00
2023-03-01T06:39:02.729Z,2.67
2023-03-01T06:41:32.057Z,2.80
2023-03-01T06:44:00.322Z,3.87
2023-03-01T06:46:28.858Z,3.00
2023-03-01T06:48:57.065Z,3.33
2023-03-01T06:51:25.135Z,2.67
2023-03-01T06:53:53.402Z,2.73
2023-03-01T06:56:21.504Z,4.00
2023-03-01T06:58:50.770Z,4.37
2023-03-01T07:01:19.078Z,4.70
2023-03-01T07:03:47.258Z,4.77
2023-03-01T07:06:15.546Z,3.67
2023-03-01T07:08:44.045Z,4.03
2023-03-01T07:11:12.348Z,4.80
2023-03-01T07:13:40.410Z,3.90
2023-03-01T07:16:10.569Z,3.63
2023-03-01T07:18:38.596Z,4.65
2023-03-01T07:21:07.893Z,3.53
2023-03-01T07:23:36.422Z,3.12
2023-03-01T07:26:04.609Z,4.40
2023-03-01T07:28:36.885Z,4.53
2023-03-01T07:31:05.687Z,5.25
2023-03-01T07:33:35.177Z,5.00
2023-03-01T07:36:05.172Z,5.30
2023-03-01T07:38:33.758Z,4.68
2023-03-01T07:41:03.281Z,4.68
2023-03-01T07:43:31.763Z,4.37
2023-03-01T07:46:01.345Z,5.07
2023-03-01T07:48:29.572Z,5.85
2023-03-01T07:51:01.712Z,5.30
2023-03-01T07:53:31.853Z,4.47
2023-03-01T07:56:04.227Z,4.82
2023-03-01T07:58:32.434Z,5.35
2023-03-01T08:01:03.628Z,5.43
2023-03-01T08:03:31.964Z,5.75
2023-03-01T08:06:03.111Z,4.93
2023-03-01T08:08:32.159Z,5.43
2023-03-01T08:11:01.012Z,5.00
2023-03-01T08:13:29.126Z,4.78
2023-03-01T08:16:03.399Z,5.03
2023-03-01T08:18:31.641Z,4.85
2023-03-01T08:21:05.252Z,4.78
2023-03-01T08:23:33.522Z,5.18
2023-03-01T08:26:08.049Z,4.65
2023-03-01T08:28:36.835Z,5.03
2023-03-01T08:31:05.536Z,5.62
2023-03-01T08:33:33.521Z,4.80
2023-03-01T08:36:07.923Z,5.20
2023-03-01T08:38:36.324Z,5.55
2023-03-01T08:41:05.875Z,5.72
2023-03-01T08:43:33.868Z,5.05
2023-03-01T08:46:02.172Z,5.32
2023-03-01T08:48:30.993Z,4.60
2023-03-01T08:50:59.109Z,4.47
2023-03-01T08:53:28.844Z,5.80
2023-03-01T08:55:56.851Z,4.85
2023-03-01T08:58:25.074Z,4.93
2023-03-01T09:00:53.413Z,5.68
2023-03-01T09:03:21.537Z,5.25
2023-03-01T09:05:51.197Z,5.07
2023-03-01T09:08:20.195Z,5.03
2023-03-01T09:10:49.952Z,5.22
2023-03-01T09:13:18.017Z,5.72
2023-03-01T09:15:46.327Z,5.15
2023-03-01T09:18:14.329Z,6.10
2023-03-01T09:20:42.810Z,5.22
2023-03-01T09:23:13.247Z,5.80
2023-03-01T09:25:41.342Z,5.82
2023-03-01T09:28:24.149Z,6.03
2023-03-01T09:31:00.242Z,5.93
2023-03-01T09:33:29.016Z,5.03
2023-03-01T09:36:01.406Z,5.90
2023-03-01T09:38:29.867Z,5.95
2023-03-01T09:40:59.071Z,5.47
2023-03-01T09:43:36.265Z,6.00
2023-03-01T09:46:08.266Z,5.97
2023-03-01T09:48:43.838Z,5.40
2023-03-01T09:51:19.814Z,5.80
2023-03-01T09:53:48.062Z,5.47
2023-03-01T09:56:22.618Z,5.32
2023-03-01T09:58:57.762Z,5.22
2023-03-01T10:01:35.742Z,5.30
2023-03-01T10:04:28.259Z,5.45
2023-03-01T10:07:06.549Z,4.97
2023-03-01T10:09:36.754Z,5.32
2023-03-01T10:12:11.064Z,5.20
2023-03-01T10:14:48.898Z,4.70
2023-03-01T10:17:26.672Z,5.47
2023-03-01T10:19:55.645Z,5.00
2023-03-01T10:22:27.040Z,5.45
2023-03-01T10:24:57.495Z,6.10
2023-03-01T10:27:27.578Z,5.90
2023-03-01T10:30:17.157Z,5.22
2023-03-01T10:32:46.417Z,5.25
2023-03-01T10:35:20.221Z,3.95
2023-03-01T10:37:59.843Z,4.80
2023-03-01T10:40:28.359Z,4.72
2023-03-01T10:43:00.468Z,4.87
2023-03-01T10:45:38.840Z,4.00
2023-03-01T10:48:13.399Z,4.53
2023-03-01T10:50:42.899Z,4.40
2023-03-01T10:53:27.252Z,4.28
2023-03-01T10:56:01.690Z,5.22
2023-03-01T10:58:31.084Z,3.92
2023-03-01T11:01:02.954Z,4.50
2023-03-01T11:03:33.205Z,3.83
2023-03-01T11:06:05.927Z,4.55
2023-03-01T11:08:40.277Z,4.55
2023-03-01T11:11:24.581Z,4.37
2023-03-01T11:14:01.597Z,3.92
2023-03-01T11:16:35.226Z,4.25
2023-03-01T11:19:17.805Z,4.30
2023-03-01T11:21:55.117Z,4.35
2023-03-01T11:24:32.277Z,4.43
2023-03-01T11:27:04.637Z,4.35
2023-03-01T11:29:47.767Z,3.97
2023-03-01T11:32:18.650Z,4.72
2023-03-01T11:34:51.212Z,4.12
2023-03-01T11:37:30.500Z,4.25
2023-03-01T11:40:05.959Z,4.10
2023-03-01T11:42:48.692Z,4.28
2023-03-01T11:45:16.953Z,3.80
2023-03-01T11:48:01.620Z,2.92
2023-03-01T11:50:36.629Z,3.30
2023-03-01T11:53:22.622Z,3.80
2023-03-01T11:56:11.780Z,3.03
2023-03-01T11:58:58.805Z,3.30
2023-03-01T12:01:39.025Z,3.72
2023-03-01T12:04:38.641Z,3.58
2023-03-01T12:07:15.178Z,3.65
2023-03-01T12:09:57.754Z,3.70
2023-03-01T12:12:37.340Z,3.08
2023-03-01T12:15:25.946Z,3.55
2023-03-01T12:18:10.504Z,3.22
2023-03-01T12:20:47.528Z,3.28
2023-03-01T12:23:35.756Z,3.28
2023-03-01T12:26:14.094Z,3.55
2023-03-01T12:28:53.738Z,2.85
2023-03-01T12:31:39.238Z,2.85
2023-03-01T12:34:27.263Z,3.33
2023-03-01T12:37:14.255Z,3.17
2023-03-01T12:39:53.351Z,3.45
2023-03-01T12:42:32.018Z,3.95
2023-03-01T12:45:18.890Z,3.50
2023-03-01T12:48:04.927Z,3.08
2023-03-01T12:50:42.357Z,3.12
2023-03-01T12:53:23.945Z,3.75
2023-03-01T12:55:53.983Z,3.42
2023-03-01T12:58:34.236Z,3.78
2023-03-01T13:01:24.536Z,3.20
2023-03-01T13:04:23.529Z,3.17
2023-03-01T13:07:01.949Z,4.12
2023-03-01T13:09:40.341Z,3.60
2023-03-01T13:12:41.867Z,3.12
2023-03-01T13:15:27.861Z,3.15
2023-03-01T13:17:58.148Z,2.65
2023-03-01T13:20:31.678Z,2.65
2023-03-01T13:23:11.356Z,3.03
2023-03-01T13:26:09.793Z,2.40
2023-03-01T13:28:54.194Z,2.20
2023-03-01T13:31:59.909Z,2.90
2023-03-01T13:34:46.477Z,2.30
2023-03-01T13:37:23.229Z,2.87
2023-03-01T13:39:52.347Z,2.40
2023-03-01T13:42:38.266Z,2.55
2023-03-01T13:45:20.966Z,2.62
2023-03-01T13:47:53.613Z,2.70
2023-03-01T13:50:25.597Z,2.37
2023-03-01T13:53:00.123Z,2.33
2023-03-01T13:55:37.920Z,1.83
2023-03-01T13:58:17.852Z,2.10
2023-03-01T14:00:47.374Z,2.00
2023-03-01T14:03:18.418Z,1.87
2023-03-01T14:06:13.185Z,1.70
2023-03-01T14:08:43.321Z,1.58
2023-03-01T14:12:03.269Z,2.20
2023-03-01T14:14:43.863Z,1.80
2023-03-01T14:17:34.131Z,1.98
2023-03-01T14:20:10.128Z,1.73
2023-03-01T14:22:38.879Z,1.70
2023-03-01T14:25:18.967Z,1.77
2023-03-01T14:27:52.755Z,1.58
2023-03-01T14:30:23.923Z,1.90
2023-03-01T14:32:58.240Z,1.58
2023-03-01T14:35:28.857Z,1.52
2023-03-01T14:37:56.987Z,1.67
2023-03-01T14:40:28.854Z,1.65
2023-03-01T14:43:00.299Z,2.10
2023-03-01T14:45:31.566Z,1.80
2023-03-01T14:48:04.142Z,1.92
2023-03-01T14:50:34.181Z,1.95
2023-03-01T14:53:04.750Z,1.62
2023-03-01T14:55:35.895Z,1.65
2023-03-01T14:58:06.504Z,1.62
2023-03-01T15:00:36.343Z,1.67
2023-03-01T15:03:14.346Z,2.35
2023-03-01T15:05:44.983Z,2.40
2023-03-01T15:08:19.903Z,2.45
2023-03-01T15:10:59.593Z,2.70
2023-03-01T15:13:32.158Z,2.50
2023-03-01T15:16:08.542Z,2.50
2023-03-01T15:18:39.579Z,2.45
2023-03-01T15:21:10.584Z,3.15
2023-03-01T15:23:41.895Z,2.33
2023-03-01T15:26:24.931Z,2.50
2023-03-01T15:28:59.105Z,2.78
2023-03-01T15:31:29.438Z,2.25
2023-03-01T15:34:23.080Z,1.92
2023-03-01T15:36:52.449Z,2.37
2023-03-01T15:39:39.161Z,2.00
2023-03-01T15:42:13.950Z,2.30
2023-03-01T15:44:45.998Z,2.12
2023-03-01T15:47:27.233Z,1.92
2023-03-01T15:49:57.723Z,2.10
2023-03-01T15:52:30.181Z,1.98
2023-03-01T15:55:01.096Z,1.90
2023-03-01T15:57:29.547Z,1.77
2023-03-01T15:59:57.968Z,1.87
2023-03-01T16:02:26.758Z,1.80
2023-03-01T16:04:57.423Z,1.70
2023-03-01T16:07:28.957Z,1.85
2023-03-01T16:09:57.305Z,2.10
2023-03-01T16:12:26.138Z,1.65
2023-03-01T16:14:54.891Z,2.22
2023-03-01T16:17:23.210Z,2.60
2023-03-01T16:19:51.285Z,2.30
2023-03-01T16:22:22.034Z,1.50
2023-03-01T16:24:51.644Z,1.90
2023-03-01T16:27:21.465Z,1.60
2023-03-01T16:29:49.554Z,2.10
2023-03-01T16:32:18.000Z,2.33
2023-03-01T16:34:48.722Z,2.60
2023-03-01T16:37:17.251Z,2.20
2023-03-01T16:39:45.518Z,2.03
2023-03-01T16:42:15.398Z,2.35
2023-03-01T16:44:43.497Z,2.30
2023-03-01T16:47:11.866Z,2.30
2023-03-01T16:49:39.849Z,1.87
2023-03-01T16:52:07.940Z,2.20
2023-03-01T16:54:36.186Z,2.25
2023-03-01T16:57:04.261Z,2.03
2023-03-01T16:59:33.614Z,1.85
2023-03-01T17:02:01.854Z,1.60
2023-03-01T17:04:29.927Z,2.28
2023-03-01T17:06:58.120Z,1.98
2023-03-01T17:09:26.587Z,2.25
2023-03-01T17:11:55.294Z,2.03
2023-03-01T17:14:23.460Z,2.05
2023-03-01T17:16:53.982Z,1.62
2023-03-01T17:19:22.099Z,2.47
2023-03-01T17:21:50.487Z,2.62
2023-03-01T17:24:18.766Z,1.80
2023-03-01T17:26:46.734Z,2.05
2023-03-01T17:29:14.742Z,1.95
2023-03-01T17:31:43.157Z,2.20
2023-03-01T17:34:12.600Z,1.92
2023-03-01T17:36:44.172Z,1.83
2023-03-01T17:39:12.619Z,2.05
2023-03-01T17:41:40.584Z,2.75
2023-03-01T17:44:08.576Z,2.30
2023-03-01T17:46:36.952Z,1.65
2023-03-01T17:49:05.271Z,2.20
2023-03-01T17:51:35.636Z,2.20
2023-03-01T17:54:05.509Z,2.78
2023-03-01T17:56:34.195Z,2.65
2023-03-01T17:59:02.731Z,3.03
2023-03-01T18:01:31.522Z,2.75
2023-03-01T18:04:00.051Z,3.50
2023-03-01T18:06:29.928Z,3.25
2023-03-01T18:09:01.461Z,3.67
2023-03-01T18:11:29.879Z,3.28
2023-03-01T18:13:57.963Z,3.25
2023-03-01T18:16:26.495Z,3.17
2023-03-01T18:18:57.456Z,3.65
2023-03-01T18:21:26.214Z,3.50
2023-03-01T18:23:59.668Z,3.50
2023-03-01T18:26:33.403Z,4.10
2023-03-01T18:29:04.553Z,3.95
2023-03-01T18:31:33.629Z,3.97
2023-03-01T18:34:02.268Z,3.92
2023-03-01T18:36:32.114Z,3.85
2023-03-01T18:39:00.377Z,3.80
2023-03-01T18:41:30.299Z,3.80
2023-03-01T18:44:00.428Z,3.97
2023-03-01T18:46:28.703Z,4.82
2023-03-01T18:48:56.976Z,4.30
2023-03-01T18:51:27.138Z,4.25
2023-03-01T18:53:55.868Z,4.07
2023-03-01T18:56:23.833Z,4.15
2023-03-01T18:58:51.922Z,4.12
2023-03-01T19:01:24.419Z,4.15
2023-03-01T19:03:56.254Z,4.03
2023-03-01T19:06:25.973Z,4.80
2023-03-01T19:08:54.472Z,4.60
2023-03-01T19:11:22.544Z,3.87
2023-03-01T19:13:51.858Z,4.12
2023-03-01T19:16:23.850Z,3.92
2023-03-01T19:18:54.078Z,4.15
2023-03-01T19:21:25.164Z,4.07
2023-03-01T19:23:54.635Z,3.65
2023-03-01T19:26:24.601Z,3.37
2023-03-01T19:28:53.915Z,3.47
2023-03-01T19:31:26.423Z,4.20
2023-03-01T19:34:05.242Z,3.47
2023-03-01T19:36:37.298Z,3.58
2023-03-01T19:39:07.629Z,3.50
2023-03-01T19:41:36.032Z,4.00
2023-03-01T19:44:05.859Z,3.53
2023-03-01T19:46:35.947Z,3.22
2023-03-01T19:49:05.366Z,3.62
2023-03-01T19:51:36.341Z,3.22
2023-03-01T19:54:06.522Z,3.60
2023-03-01T19:56:35.656Z,3.22
2023-03-01T19:59:05.017Z,3.70
2023-03-01T20:01:37.537Z,3.12
2023-03-01T20:04:06.559Z,3.28
2023-03-01T20:06:34.972Z,3.45
2023-03-01T20:09:15.316Z,3.15
2023-03-01T20:11:49.153Z,3.67
2023-03-01T20:14:17.512Z,3.87
2023-03-01T20:16:47.075Z,3.67
2023-03-01T20:19:15.618Z,3.47
2023-03-01T20:21:43.606Z,3.47
2023-03-01T20:24:11.706Z,4.32
2023-03-01T20:26:41.031Z,4.37
2023-03-01T20:29:10.314Z,4.00
2023-03-01T20:31:39.903Z,4.30
2023-03-01T20:34:09.708Z,3.75
2023-03-01T20:36:39.305Z,3.72
2023-03-01T20:39:07.904Z,3.40
2023-03-01T20:41:36.332Z,3.65
2023-03-01T20:44:06.548Z,4.30
2023-03-01T20:46:35.934Z,3.62
2023-03-01T20:49:05.866Z,3.03
2023-03-01T20:51:35.259Z,3.60
2023-03-01T20:54:03.335Z,3.42
2023-03-01T20:56:32.273Z,3.58
2023-03-01T20:59:04.387Z,2.87
2023-03-01T21:01:32.953Z,2.72
2023-03-01T21:04:01.144Z,2.78
2023-03-01T21:06:29.427Z,2.70
2023-03-01T21:08:59.114Z,3.90
2023-03-01T21:11:27.201Z,3.15
2023-03-01T21:13:55.725Z,3.00
2023-03-01T21:16:24.993Z,3.00
2023-03-01T21:18:53.422Z,3.03
2023-03-01T21:21:22.728Z,3.00
2023-03-01T21:23:51.027Z,3.47
2023-03-01T21:26:22.370Z,2.78
2023-03-01T21:28:54.342Z,3.08
2023-03-01T21:31:24.995Z,3.37
2023-03-01T21:33:54.603Z,3.87
2023-03-01T21:36:24.216Z,3.12
2023-03-01T21:38:53.277Z,4.00
2023-03-01T21:41:24.971Z,3.42
2023-03-01T21:43:57.931Z,4.15
2023-03-01T21:46:31.622Z,3.22
2023-03-01T21:49:00.537Z,2.85
2023-03-01T21:51:30.553Z,3.00
2023-03-01T21:54:00.985Z,3.45
2023-03-01T21:56:34.481Z,3.37
2023-03-01T21:59:03.518Z,2.97
2023-03-01T22:01:32.134Z,3.08
2023-03-01T22:04:03.310Z,3.28
2023-03-01T22:06:34.245Z,3.37
2023-03-01T22:09:06.004Z,3.78
2023-03-01T22:11:37.410Z,2.87
2023-03-01T22:14:05.779Z,2.92
2023-03-01T22:16:36.419Z,2.83
2023-03-01T22:19:05.006Z,3.47
2023-03-01T22:21:37.027Z,3.30
2023-03-01T22:24:05.714Z,3.00
2023-03-01T22:26:37.873Z,3.30
2023-03-01T22:29:08.838Z,3.12
2023-03-01T22:31:37.457Z,3.92
2023-03-01T22:34:06.352Z,2.70
2023-03-01T22:36:35.228Z,3.05
2023-03-01T22:39:04.403Z,2.85
2023-03-01T22:41:36.765Z,3.33
2023-03-01T22:44:05.718Z,3.47
2023-03-01T22:46:34.360Z,3.25
2023-03-01T22:49:02.698Z,3.10
2023-03-01T22:51:33.943Z,3.40
2023-03-01T22:54:02.373Z,2.70
2023-03-01T22:56:33.132Z,3.08
2023-03-01T22:59:04.829Z,2.58
2023-03-01T23:01:33.080Z,3.87
2023-03-01T23:04:22.161Z,3.05
2023-03-01T23:06:54.731Z,2.70
2023-03-01T23:09:25.470Z,9.70
2023-03-01T23:11:55.483Z,7.25
2023-03-01T23:14:25.516Z,6.47
2023-03-01T23:16:54.385Z,7.70
2023-03-01T23:19:23.051Z,4.87
2023-03-01T23:21:51.175Z,4.00
2023-03-01T23:24:21.494Z,3.00
2023-03-01T23:26:53.345Z,3.20
2023-03-01T23:29:22.303Z,3.20
2023-03-01T23:31:51.857Z,3.80
2023-03-01T23:34:20.070Z,2.97
2023-03-01T23:36:48.511Z,4.15
2023-03-01T23:39:16.530Z,3.53
2023-03-01T23:41:44.772Z,2.65
2023-03-01T23:44:16.768Z,3.12
2023-03-01T23:46:45.932Z,3.45
2023-03-01T23:49:17.496Z,3.20
2023-03-01T23:51:47.685Z,3.47
2023-03-01T23:54:18.830Z,3.40
2023-03-01T23:56:47.936Z,2.92
2023-03-01T23:59:18.052Z,3.67
